sensor_id;sensor_type;location;lat;lon;timestamp;temperature;humidity
13976;DHT22;7062;49.792;9.946;2024-01-30T00:01:42;4.50;99.90
13976;DHT22;7062;49.792;9.946;2024-01-30T00:04:08;4.60;99.90
13976;DHT22;7062;49.792;9.946;2024-01-30T00:06:34;4.90;99.90
13976;DHT22;7062;49.792;9.946;2024-01-30T00:08:59;5.00;99.90
13976;DHT22;7062;49.792;9.946;2024-01-30T00:11:25;5.10;99.90
13976;DHT22;7062;49.792;9.946;2024-01-30T00:13:51;4.90;99.90
13976;DHT22;7062;49.792;9.946;2024-01-30T00:16:24;4.60;99.90
13976;DHT22;7062;49.792;9.946;2024-01-30T00:18:51;4.40;99.90
13976;DHT22;7062;49.792;9.946;2024-01-30T00:21:17;4.20;99.90
13976;DHT22;7062;49.792;9.946;2024-01-30T00:23:43;4.00;99.90
13976;DHT22;7062;49.792;9.946;2024-01-30T00:26:09;4.00;99.90
13976;DHT22;7062;49.792;9.946;2024-01-30T00:28:35;4.10;99.90
13976;DHT22;7062;49.792;9.946;2024-01-30T00:31:00;4.10;99.90
13976;DHT22;7062;49.792;9.946;2024-01-30T00:33:26;4.10;99.90
13976;DHT22;7062;49.792;9.946;2024-01-30T00:35:52;4.00;99.90
13976;DHT22;7062;49.792;9.946;2024-01-30T00:38:17;4.00;99.90
13976;DHT22;7062;49.792;9.946;2024-01-30T00:40:43;3.90;99.90
13976;DHT22;7062;49.792;9.946;2024-01-30T00:43:09;4.10;99.90
13976;DHT22;7062;49.792;9.946;2024-01-30T00:45:34;4.20;99.90
13976;DHT22;7062;49.792;9.946;2024-01-30T00:48:00;4.20;99.90
13976;DHT22;7062;49.792;9.946;2024-01-30T00:50:26;4.30;99.90
13976;DHT22;7062;49.792;9.946;2024-01-30T00:52:51;4.20;99.90
13976;DHT22;7062;49.792;9.946;2024-01-30T00:55:17;4.30;99.90
13976;DHT22;7062;49.792;9.946;2024-01-30T00:57:43;4.30;99.90
13976;DHT22;7062;49.792;9.946;2024-01-30T01:00:09;4.30;99.90
13976;DHT22;7062;49.792;9.946;2024-01-30T01:02:35;4.10;99.90
13976;DHT22;7062;49.792;9.946;2024-01-30T01:05:01;3.90;99.90
13976;DHT22;7062;49.792;9.946;2024-01-30T01:07:27;4.10;99.90
13976;DHT22;7062;49.792;9.946;2024-01-30T01:09:53;4.20;99.90
13976;DHT22;7062;49.792;9.946;2024-01-30T01:12:19;4.20;99.90
13976;DHT22;7062;49.792;9.946;2024-01-30T01:14:44;4.30;99.90
13976;DHT22;7062;49.792;9.946;2024-01-30T01:17:10;4.20;99.90
13976;DHT22;7062;49.792;9.946;2024-01-30T01:19:36;4.30;99.90
13976;DHT22;7062;49.792;9.946;2024-01-30T01:22:02;4.40;99.90
13976;DHT22;7062;49.792;9.946;2024-01-30T01:24:30;4.40;99.90
13976;DHT22;7062;49.792;9.946;2024-01-30T01:26:56;4.60;99.90
13976;DHT22;7062;49.792;9.946;2024-01-30T01:29:22;4.70;99.90
13976;DHT22;7062;49.792;9.946;2024-01-30T01:31:56;4.50;99.90
13976;DHT22;7062;49.792;9.946;2024-01-30T01:34:22;4.30;99.90
13976;DHT22;7062;49.792;9.946;2024-01-30T01:36:49;4.00;99.90
13976;DHT22;7062;49.792;9.946;2024-01-30T01:39:15;4.10;99.90
13976;DHT22;7062;49.792;9.946;2024-01-30T01:41:41;4.00;99.90
13976;DHT22;7062;49.792;9.946;2024-01-30T01:44:07;3.90;99.90
13976;DHT22;7062;49.792;9.946;2024-01-30T01:46:34;4.00;99.90
13976;DHT22;7062;49.792;9.946;2024-01-30T01:49:01;4.00;99.90
13976;DHT22;7062;49.792;9.946;2024-01-30T01:51:29;4.10;99.90
13976;DHT22;7062;49.792;9.946;2024-01-30T01:53:56;4.10;99.90
13976;DHT22;7062;49.792;9.946;2024-01-30T01:56:23;4.00;99.90
13976;DHT22;7062;49.792;9.946;2024-01-30T01:58:50;3.90;99.90
13976;DHT22;7062;49.792;9.946;2024-01-30T02:01:19;3.80;99.90
13976;DHT22;7062;49.792;9.946;2024-01-30T02:03:46;3.80;99.90
13976;DHT22;7062;49.792;9.946;2024-01-30T02:06:12;3.80;99.90
13976;DHT22;7062;49.792;9.946;2024-01-30T02:08:39;3.70;99.90
13976;DHT22;7062;49.792;9.946;2024-01-30T02:11:05;3.60;99.90
13976;DHT22;7062;49.792;9.946;2024-01-30T02:13:30;3.50;99.90
13976;DHT22;7062;49.792;9.946;2024-01-30T02:15:56;3.50;99.90
13976;DHT22;7062;49.792;9.946;2024-01-30T02:18:22;3.50;99.90
13976;DHT22;7062;49.792;9.946;2024-01-30T02:20:48;3.30;99.90
13976;DHT22;7062;49.792;9.946;2024-01-30T02:23:16;3.30;99.90
13976;DHT22;7062;49.792;9.946;2024-01-30T02:25:42;3.30;99.90
13976;DHT22;7062;49.792;9.946;2024-01-30T02:28:10;3.40;99.90
13976;DHT22;7062;49.792;9.946;2024-01-30T02:30:37;3.60;99.90
13976;DHT22;7062;49.792;9.946;2024-01-30T02:33:03;3.90;99.90
13976;DHT22;7062;49.792;9.946;2024-01-30T02:35:29;4.10;99.90
13976;DHT22;7062;49.792;9.946;2024-01-30T02:37:54;4.40;99.90
13976;DHT22;7062;49.792;9.946;2024-01-30T02:40:20;4.50;99.90
13976;DHT22;7062;49.792;9.946;2024-01-30T02:42:45;4.60;99.90
13976;DHT22;7062;49.792;9.946;2024-01-30T02:45:12;4.70;99.90
13976;DHT22;7062;49.792;9.946;2024-01-30T02:47:38;4.80;99.90
13976;DHT22;7062;49.792;9.946;2024-01-30T02:50:04;4.90;99.90
13976;DHT22;7062;49.792;9.946;2024-01-30T02:52:30;4.80;99.90
13976;DHT22;7062;49.792;9.946;2024-01-30T02:54:56;4.90;99.90
13976;DHT22;7062;49.792;9.946;2024-01-30T02:57:21;5.00;99.90
13976;DHT22;7062;49.792;9.946;2024-01-30T02:59:47;4.90;99.90
13976;DHT22;7062;49.792;9.946;2024-01-30T03:02:12;4.80;99.90
13976;DHT22;7062;49.792;9.946;2024-01-30T03:04:41;4.90;99.90
13976;DHT22;7062;49.792;9.946;2024-01-30T03:07:06;4.90;99.90
13976;DHT22;7062;49.792;9.946;2024-01-30T03:09:32;4.90;99.90
13976;DHT22;7062;49.792;9.946;2024-01-30T03:11:58;4.90;99.90
13976;DHT22;7062;49.792;9.946;2024-01-30T03:14:23;4.90;99.90
13976;DHT22;7062;49.792;9.946;2024-01-30T03:16:49;4.90;99.90
13976;DHT22;7062;49.792;9.946;2024-01-30T03:19:14;4.80;99.90
13976;DHT22;7062;49.792;9.946;2024-01-30T03:21:40;4.80;99.90
13976;DHT22;7062;49.792;9.946;2024-01-30T03:24:06;4.90;99.90
13976;DHT22;7062;49.792;9.946;2024-01-30T03:26:31;4.90;99.90
13976;DHT22;7062;49.792;9.946;2024-01-30T03:28:57;5.00;99.90
13976;DHT22;7062;49.792;9.946;2024-01-30T03:32:43;5.00;99.90
13976;DHT22;7062;49.792;9.946;2024-01-30T03:34:56;5.00;99.90
13976;DHT22;7062;49.792;9.946;2024-01-30T03:37:21;5.00;99.90
13976;DHT22;7062;49.792;9.946;2024-01-30T03:39:47;5.00;99.90
13976;DHT22;7062;49.792;9.946;2024-01-30T03:42:12;4.90;99.90
13976;DHT22;7062;49.792;9.946;2024-01-30T03:44:38;4.90;99.90
13976;DHT22;7062;49.792;9.946;2024-01-30T03:47:04;4.90;99.90
13976;DHT22;7062;49.792;9.946;2024-01-30T03:49:29;5.00;99.90
13976;DHT22;7062;49.792;9.946;2024-01-30T03:51:55;4.90;99.90
13976;DHT22;7062;49.792;9.946;2024-01-30T03:54:21;4.90;99.90
13976;DHT22;7062;49.792;9.946;2024-01-30T03:56:47;4.50;99.90
13976;DHT22;7062;49.792;9.946;2024-01-30T03:59:12;4.90;99.90
13976;DHT22;7062;49.792;9.946;2024-01-30T04:01:38;4.80;99.90
13976;DHT22;7062;49.792;9.946;2024-01-30T04:04:03;4.90;99.90
13976;DHT22;7062;49.792;9.946;2024-01-30T04:06:29;4.90;99.90
13976;DHT22;7062;49.792;9.946;2024-01-30T04:08:55;4.90;99.90
13976;DHT22;7062;49.792;9.946;2024-01-30T04:11:20;4.80;99.90
13976;DHT22;7062;49.792;9.946;2024-01-30T04:13:46;4.80;99.90
13976;DHT22;7062;49.792;9.946;2024-01-30T04:16:22;4.90;99.90
13976;DHT22;7062;49.792;9.946;2024-01-30T04:18:48;4.80;99.90
13976;DHT22;7062;49.792;9.946;2024-01-30T04:21:14;4.80;99.90
13976;DHT22;7062;49.792;9.946;2024-01-30T04:23:41;4.70;99.90
13976;DHT22;7062;49.792;9.946;2024-01-30T04:26:06;4.70;99.90
13976;DHT22;7062;49.792;9.946;2024-01-30T04:28:32;4.80;99.90
13976;DHT22;7062;49.792;9.946;2024-01-30T04:30:58;4.80;99.90
13976;DHT22;7062;49.792;9.946;2024-01-30T04:33:23;4.80;99.90
13976;DHT22;7062;49.792;9.946;2024-01-30T04:35:49;4.80;99.90
13976;DHT22;7062;49.792;9.946;2024-01-30T04:38:14;4.70;99.90
13976;DHT22;7062;49.792;9.946;2024-01-30T04:40:40;4.70;99.90
13976;DHT22;7062;49.792;9.946;2024-01-30T04:43:06;4.70;99.90
13976;DHT22;7062;49.792;9.946;2024-01-30T04:45:32;4.60;99.90
13976;DHT22;7062;49.792;9.946;2024-01-30T04:47:57;4.60;99.90
13976;DHT22;7062;49.792;9.946;2024-01-30T04:50:23;4.70;99.90
13976;DHT22;7062;49.792;9.946;2024-01-30T04:52:49;4.60;99.90
13976;DHT22;7062;49.792;9.946;2024-01-30T04:55:15;4.60;99.90
13976;DHT22;7062;49.792;9.946;2024-01-30T04:57:40;4.60;99.90
13976;DHT22;7062;49.792;9.946;2024-01-30T05:00:07;4.60;99.90
13976;DHT22;7062;49.792;9.946;2024-01-30T05:02:32;4.60;99.90
13976;DHT22;7062;49.792;9.946;2024-01-30T05:04:58;4.60;99.90
13976;DHT22;7062;49.792;9.946;2024-01-30T05:07:24;4.60;99.90
13976;DHT22;7062;49.792;9.946;2024-01-30T05:09:50;4.60;99.90
13976;DHT22;7062;49.792;9.946;2024-01-30T05:12:16;4.60;99.90
13976;DHT22;7062;49.792;9.946;2024-01-30T05:14:42;4.70;99.90
13976;DHT22;7062;49.792;9.946;2024-01-30T05:17:07;4.60;99.90
13976;DHT22;7062;49.792;9.946;2024-01-30T05:19:38;4.50;99.90
13976;DHT22;7062;49.792;9.946;2024-01-30T05:22:04;4.50;99.90
13976;DHT22;7062;49.792;9.946;2024-01-30T05:24:29;4.60;99.90
13976;DHT22;7062;49.792;9.946;2024-01-30T05:26:55;4.60;99.90
13976;DHT22;7062;49.792;9.946;2024-01-30T05:29:20;4.60;99.90
13976;DHT22;7062;49.792;9.946;2024-01-30T05:31:46;4.50;99.90
13976;DHT22;7062;49.792;9.946;2024-01-30T05:34:12;4.50;99.90
13976;DHT22;7062;49.792;9.946;2024-01-30T05:36:37;4.60;99.90
13976;DHT22;7062;49.792;9.946;2024-01-30T05:39:03;4.60;99.90
13976;DHT22;7062;49.792;9.946;2024-01-30T05:41:29;4.60;99.90
13976;DHT22;7062;49.792;9.946;2024-01-30T05:43:54;4.60;99.90
13976;DHT22;7062;49.792;9.946;2024-01-30T05:46:20;4.50;99.90
13976;DHT22;7062;49.792;9.946;2024-01-30T05:48:45;4.20;99.90
13976;DHT22;7062;49.792;9.946;2024-01-30T05:51:11;3.70;99.90
13976;DHT22;7062;49.792;9.946;2024-01-30T05:53:37;3.40;99.90
13976;DHT22;7062;49.792;9.946;2024-01-30T05:56:03;3.40;99.90
13976;DHT22;7062;49.792;9.946;2024-01-30T05:58:28;3.50;99.90
13976;DHT22;7062;49.792;9.946;2024-01-30T06:00:54;3.70;99.90
13976;DHT22;7062;49.792;9.946;2024-01-30T06:03:20;3.90;99.90
13976;DHT22;7062;49.792;9.946;2024-01-30T06:05:46;4.00;99.90
13976;DHT22;7062;49.792;9.946;2024-01-30T06:08:11;4.10;99.90
13976;DHT22;7062;49.792;9.946;2024-01-30T06:10:37;4.20;99.90
13976;DHT22;7062;49.792;9.946;2024-01-30T06:13:03;4.20;99.90
13976;DHT22;7062;49.792;9.946;2024-01-30T06:15:29;4.20;99.90
13976;DHT22;7062;49.792;9.946;2024-01-30T06:17:58;4.20;99.90
13976;DHT22;7062;49.792;9.946;2024-01-30T06:20:24;4.30;99.90
13976;DHT22;7062;49.792;9.946;2024-01-30T06:22:49;4.30;99.90
13976;DHT22;7062;49.792;9.946;2024-01-30T06:25:15;4.30;99.90
13976;DHT22;7062;49.792;9.946;2024-01-30T06:27:42;4.30;99.90
13976;DHT22;7062;49.792;9.946;2024-01-30T06:30:08;4.30;99.90
13976;DHT22;7062;49.792;9.946;2024-01-30T06:32:43;4.30;99.90
13976;DHT22;7062;49.792;9.946;2024-01-30T06:35:09;4.30;99.90
13976;DHT22;7062;49.792;9.946;2024-01-30T06:37:36;4.30;99.90
13976;DHT22;7062;49.792;9.946;2024-01-30T06:40:02;4.30;99.90
13976;DHT22;7062;49.792;9.946;2024-01-30T06:42:30;4.40;99.90
13976;DHT22;7062;49.792;9.946;2024-01-30T06:44:55;4.30;99.90
13976;DHT22;7062;49.792;9.946;2024-01-30T06:47:21;4.30;99.90
13976;DHT22;7062;49.792;9.946;2024-01-30T06:49:47;4.30;99.90
13976;DHT22;7062;49.792;9.946;2024-01-30T06:52:12;4.20;99.90
13976;DHT22;7062;49.792;9.946;2024-01-30T06:54:38;4.20;99.90
13976;DHT22;7062;49.792;9.946;2024-01-30T06:57:05;4.20;99.90
13976;DHT22;7062;49.792;9.946;2024-01-30T06:59:34;4.30;99.90
13976;DHT22;7062;49.792;9.946;2024-01-30T07:02:00;4.30;99.90
13976;DHT22;7062;49.792;9.946;2024-01-30T07:04:25;4.30;99.90
13976;DHT22;7062;49.792;9.946;2024-01-30T07:06:51;4.40;99.90
13976;DHT22;7062;49.792;9.946;2024-01-30T07:09:18;4.40;99.90
13976;DHT22;7062;49.792;9.946;2024-01-30T07:11:44;4.30;99.90
13976;DHT22;7062;49.792;9.946;2024-01-30T07:14:10;4.20;99.90
13976;DHT22;7062;49.792;9.946;2024-01-30T07:16:36;4.30;99.90
13976;DHT22;7062;49.792;9.946;2024-01-30T07:19:01;4.20;99.90
13976;DHT22;7062;49.792;9.946;2024-01-30T07:21:27;4.20;99.90
13976;DHT22;7062;49.792;9.946;2024-01-30T07:23:57;4.30;99.90
13976;DHT22;7062;49.792;9.946;2024-01-30T07:26:22;4.40;99.90
13976;DHT22;7062;49.792;9.946;2024-01-30T07:28:48;4.40;99.90
13976;DHT22;7062;49.792;9.946;2024-01-30T07:31:15;4.40;99.90
13976;DHT22;7062;49.792;9.946;2024-01-30T07:33:41;4.40;99.90
13976;DHT22;7062;49.792;9.946;2024-01-30T07:36:06;4.40;99.90
13976;DHT22;7062;49.792;9.946;2024-01-30T07:38:32;4.50;99.90
13976;DHT22;7062;49.792;9.946;2024-01-30T07:40:58;4.50;99.90
13976;DHT22;7062;49.792;9.946;2024-01-30T07:43:23;4.60;99.90
13976;DHT22;7062;49.792;9.946;2024-01-30T07:45:49;4.60;99.90
13976;DHT22;7062;49.792;9.946;2024-01-30T07:48:15;4.50;99.90
13976;DHT22;7062;49.792;9.946;2024-01-30T07:50:40;4.50;99.90
13976;DHT22;7062;49.792;9.946;2024-01-30T07:53:06;4.50;99.90
13976;DHT22;7062;49.792;9.946;2024-01-30T07:55:32;4.60;99.90
13976;DHT22;7062;49.792;9.946;2024-01-30T07:57:58;4.70;99.90
13976;DHT22;7062;49.792;9.946;2024-01-30T08:00:27;4.80;99.90
13976;DHT22;7062;49.792;9.946;2024-01-30T08:02:55;5.00;99.90
13976;DHT22;7062;49.792;9.946;2024-01-30T08:05:21;5.00;99.90
13976;DHT22;7062;49.792;9.946;2024-01-30T08:07:50;5.10;99.90
13976;DHT22;7062;49.792;9.946;2024-01-30T08:10:16;5.10;99.90
13976;DHT22;7062;49.792;9.946;2024-01-30T08:12:43;5.10;99.90
13976;DHT22;7062;49.792;9.946;2024-01-30T08:15:09;5.20;99.90
13976;DHT22;7062;49.792;9.946;2024-01-30T08:17:35;5.10;99.90
13976;DHT22;7062;49.792;9.946;2024-01-30T08:20:01;5.10;99.90
13976;DHT22;7062;49.792;9.946;2024-01-30T08:22:26;5.20;99.90
13976;DHT22;7062;49.792;9.946;2024-01-30T08:24:52;5.20;99.90
13976;DHT22;7062;49.792;9.946;2024-01-30T08:27:17;5.30;99.90
13976;DHT22;7062;49.792;9.946;2024-01-30T08:29:43;5.20;99.90
13976;DHT22;7062;49.792;9.946;2024-01-30T08:32:09;5.20;99.90
13976;DHT22;7062;49.792;9.946;2024-01-30T08:34:34;5.30;99.90
13976;DHT22;7062;49.792;9.946;2024-01-30T08:37:00;5.10;99.90
13976;DHT22;7062;49.792;9.946;2024-01-30T08:39:25;5.20;99.90
13976;DHT22;7062;49.792;9.946;2024-01-30T08:41:51;5.10;99.90
13976;DHT22;7062;49.792;9.946;2024-01-30T08:44:17;5.00;99.90
13976;DHT22;7062;49.792;9.946;2024-01-30T08:46:44;4.90;99.90
13976;DHT22;7062;49.792;9.946;2024-01-30T08:49:11;4.90;99.90
13976;DHT22;7062;49.792;9.946;2024-01-30T08:51:41;4.80;99.90
13976;DHT22;7062;49.792;9.946;2024-01-30T08:54:07;5.00;99.90
13976;DHT22;7062;49.792;9.946;2024-01-30T08:56:32;5.20;99.90
13976;DHT22;7062;49.792;9.946;2024-01-30T08:58:58;5.40;99.90
13976;DHT22;7062;49.792;9.946;2024-01-30T09:01:25;5.60;99.90
13976;DHT22;7062;49.792;9.946;2024-01-30T09:03:50;5.70;99.90
13976;DHT22;7062;49.792;9.946;2024-01-30T09:06:16;5.90;99.90
13976;DHT22;7062;49.792;9.946;2024-01-30T09:08:42;6.00;99.90
13976;DHT22;7062;49.792;9.946;2024-01-30T09:11:13;6.10;99.90
13976;DHT22;7062;49.792;9.946;2024-01-30T09:13:39;6.20;99.90
13976;DHT22;7062;49.792;9.946;2024-01-30T09:16:05;6.30;99.90
13976;DHT22;7062;49.792;9.946;2024-01-30T09:18:31;6.30;99.90
13976;DHT22;7062;49.792;9.946;2024-01-30T09:20:57;6.40;99.90
13976;DHT22;7062;49.792;9.946;2024-01-30T09:23:22;6.50;99.90
13976;DHT22;7062;49.792;9.946;2024-01-30T09:25:48;6.10;99.90
13976;DHT22;7062;49.792;9.946;2024-01-30T09:28:14;5.90;99.90
13976;DHT22;7062;49.792;9.946;2024-01-30T09:30:40;5.90;99.90
13976;DHT22;7062;49.792;9.946;2024-01-30T09:33:06;6.10;99.90
13976;DHT22;7062;49.792;9.946;2024-01-30T09:35:31;6.20;99.90
13976;DHT22;7062;49.792;9.946;2024-01-30T09:37:57;6.40;99.90
13976;DHT22;7062;49.792;9.946;2024-01-30T09:40:24;6.60;99.90
13976;DHT22;7062;49.792;9.946;2024-01-30T09:42:51;6.80;99.90
13976;DHT22;7062;49.792;9.946;2024-01-30T09:45:18;6.90;99.90
13976;DHT22;7062;49.792;9.946;2024-01-30T09:47:45;7.00;99.90
13976;DHT22;7062;49.792;9.946;2024-01-30T09:50:12;7.00;99.90
13976;DHT22;7062;49.792;9.946;2024-01-30T09:52:38;7.00;99.90
13976;DHT22;7062;49.792;9.946;2024-01-30T09:55:05;7.20;99.90
13976;DHT22;7062;49.792;9.946;2024-01-30T09:57:31;7.40;99.90
13976;DHT22;7062;49.792;9.946;2024-01-30T09:59:57;7.30;99.90
13976;DHT22;7062;49.792;9.946;2024-01-30T10:02:23;7.00;99.90
13976;DHT22;7062;49.792;9.946;2024-01-30T10:04:50;7.10;99.90
13976;DHT22;7062;49.792;9.946;2024-01-30T10:07:17;7.20;99.90
13976;DHT22;7062;49.792;9.946;2024-01-30T10:09:43;7.30;99.90
13976;DHT22;7062;49.792;9.946;2024-01-30T10:12:09;7.40;99.90
13976;DHT22;7062;49.792;9.946;2024-01-30T10:14:42;7.70;99.90
13976;DHT22;7062;49.792;9.946;2024-01-30T10:17:09;7.90;99.90
13976;DHT22;7062;49.792;9.946;2024-01-30T10:19:39;8.10;99.90
13976;DHT22;7062;49.792;9.946;2024-01-30T10:22:05;8.10;99.90
13976;DHT22;7062;49.792;9.946;2024-01-30T10:24:33;8.00;99.90
13976;DHT22;7062;49.792;9.946;2024-01-30T10:26:59;8.10;99.90
13976;DHT22;7062;49.792;9.946;2024-01-30T10:29:25;8.10;99.90
13976;DHT22;7062;49.792;9.946;2024-01-30T10:32:04;8.40;99.90
13976;DHT22;7062;49.792;9.946;2024-01-30T10:34:30;8.70;99.90
13976;DHT22;7062;49.792;9.946;2024-01-30T10:37:10;9.10;99.90
13976;DHT22;7062;49.792;9.946;2024-01-30T10:39:41;9.10;99.90
13976;DHT22;7062;49.792;9.946;2024-01-30T10:42:12;9.20;99.90
13976;DHT22;7062;49.792;9.946;2024-01-30T10:45:06;9.30;99.90
13976;DHT22;7062;49.792;9.946;2024-01-30T10:47:36;9.50;99.90
13976;DHT22;7062;49.792;9.946;2024-01-30T10:50:05;9.70;99.90
13976;DHT22;7062;49.792;9.946;2024-01-30T10:52:32;9.90;99.90
13976;DHT22;7062;49.792;9.946;2024-01-30T10:54:58;9.80;99.90
13976;DHT22;7062;49.792;9.946;2024-01-30T10:57:27;9.80;99.90
13976;DHT22;7062;49.792;9.946;2024-01-30T11:00:00;9.90;99.90
13976;DHT22;7062;49.792;9.946;2024-01-30T11:02:27;10.40;99.90
13976;DHT22;7062;49.792;9.946;2024-01-30T11:04:59;11.00;99.90
13976;DHT22;7062;49.792;9.946;2024-01-30T11:07:27;11.50;99.90
13976;DHT22;7062;49.792;9.946;2024-01-30T11:09:59;11.10;99.90
13976;DHT22;7062;49.792;9.946;2024-01-30T11:12:29;10.40;99.90
13976;DHT22;7062;49.792;9.946;2024-01-30T11:15:24;10.30;99.90
13976;DHT22;7062;49.792;9.946;2024-01-30T11:17:52;10.20;99.90
13976;DHT22;7062;49.792;9.946;2024-01-30T11:22:51;9.80;99.90
13976;DHT22;7062;49.792;9.946;2024-01-30T11:25:19;10.00;99.90
13976;DHT22;7062;49.792;9.946;2024-01-30T11:27:45;9.90;99.90
13976;DHT22;7062;49.792;9.946;2024-01-30T11:30:27;9.90;99.90
13976;DHT22;7062;49.792;9.946;2024-01-30T11:35:25;9.40;99.90
13976;DHT22;7062;49.792;9.946;2024-01-30T11:37:51;9.30;99.90
13976;DHT22;7062;49.792;9.946;2024-01-30T11:40:19;9.50;99.90
13976;DHT22;7062;49.792;9.946;2024-01-30T11:42:45;9.70;99.90
13976;DHT22;7062;49.792;9.946;2024-01-30T11:45:12;10.00;99.90
13976;DHT22;7062;49.792;9.946;2024-01-30T11:47:38;10.20;99.90
13976;DHT22;7062;49.792;9.946;2024-01-30T11:50:04;10.20;99.90
13976;DHT22;7062;49.792;9.946;2024-01-30T11:52:33;10.00;99.90
13976;DHT22;7062;49.792;9.946;2024-01-30T11:54:59;10.10;99.90
13976;DHT22;7062;49.792;9.946;2024-01-30T11:57:27;10.10;99.90
13976;DHT22;7062;49.792;9.946;2024-01-30T11:59:53;9.90;99.90
13976;DHT22;7062;49.792;9.946;2024-01-30T12:02:22;9.90;99.90
13976;DHT22;7062;49.792;9.946;2024-01-30T12:04:48;9.90;99.90
13976;DHT22;7062;49.792;9.946;2024-01-30T12:07:13;9.90;99.90
13976;DHT22;7062;49.792;9.946;2024-01-30T12:09:42;9.90;99.90
13976;DHT22;7062;49.792;9.946;2024-01-30T12:12:08;10.00;99.90
13976;DHT22;7062;49.792;9.946;2024-01-30T12:14:39;10.30;99.90
13976;DHT22;7062;49.792;9.946;2024-01-30T12:17:05;10.50;99.90
13976;DHT22;7062;49.792;9.946;2024-01-30T12:19:30;10.70;99.90
13976;DHT22;7062;49.792;9.946;2024-01-30T12:21:57;10.70;99.90
13976;DHT22;7062;49.792;9.946;2024-01-30T12:24:27;10.40;99.90
13976;DHT22;7062;49.792;9.946;2024-01-30T12:26:59;10.50;99.90
13976;DHT22;7062;49.792;9.946;2024-01-30T12:29:25;10.40;99.90
13976;DHT22;7062;49.792;9.946;2024-01-30T12:31:54;10.60;99.90
13976;DHT22;7062;49.792;9.946;2024-01-30T12:34:20;10.40;99.90
13976;DHT22;7062;49.792;9.946;2024-01-30T12:36:47;10.60;99.90
13976;DHT22;7062;49.792;9.946;2024-01-30T12:39:14;10.50;99.90
13976;DHT22;7062;49.792;9.946;2024-01-30T12:41:40;10.60;99.90
13976;DHT22;7062;49.792;9.946;2024-01-30T12:44:06;10.60;99.90
13976;DHT22;7062;49.792;9.946;2024-01-30T12:46:34;10.90;99.90
13976;DHT22;7062;49.792;9.946;2024-01-30T12:49:00;11.00;99.90
13976;DHT22;7062;49.792;9.946;2024-01-30T12:51:25;11.10;99.90
13976;DHT22;7062;49.792;9.946;2024-01-30T12:53:51;11.20;99.90
13976;DHT22;7062;49.792;9.946;2024-01-30T12:56:17;11.10;99.90
13976;DHT22;7062;49.792;9.946;2024-01-30T12:58:42;11.20;99.90
13976;DHT22;7062;49.792;9.946;2024-01-30T13:01:09;11.20;99.90
13976;DHT22;7062;49.792;9.946;2024-01-30T13:03:35;11.30;99.90
13976;DHT22;7062;49.792;9.946;2024-01-30T13:06:01;11.30;99.90
13976;DHT22;7062;49.792;9.946;2024-01-30T13:08:27;11.20;99.90
13976;DHT22;7062;49.792;9.946;2024-01-30T13:10:52;11.00;99.90
13976;DHT22;7062;49.792;9.946;2024-01-30T13:13:18;10.90;99.90
13976;DHT22;7062;49.792;9.946;2024-01-30T13:15:44;11.00;99.90
13976;DHT22;7062;49.792;9.946;2024-01-30T13:18:09;11.10;99.90
13976;DHT22;7062;49.792;9.946;2024-01-30T13:20:35;11.20;99.90
13976;DHT22;7062;49.792;9.946;2024-01-30T13:23:01;11.20;99.90
13976;DHT22;7062;49.792;9.946;2024-01-30T13:25:26;11.10;99.90
13976;DHT22;7062;49.792;9.946;2024-01-30T13:27:52;10.80;99.90
13976;DHT22;7062;49.792;9.946;2024-01-30T13:30:18;10.90;99.90
13976;DHT22;7062;49.792;9.946;2024-01-30T13:32:43;11.00;99.90
13976;DHT22;7062;49.792;9.946;2024-01-30T13:35:10;11.00;99.90
13976;DHT22;7062;49.792;9.946;2024-01-30T13:37:35;10.80;99.90
13976;DHT22;7062;49.792;9.946;2024-01-30T13:40:04;10.70;99.90
13976;DHT22;7062;49.792;9.946;2024-01-30T13:42:32;10.90;99.90
13976;DHT22;7062;49.792;9.946;2024-01-30T13:44:58;11.00;99.90
13976;DHT22;7062;49.792;9.946;2024-01-30T13:47:24;10.90;99.90
13976;DHT22;7062;49.792;9.946;2024-01-30T13:49:50;10.60;99.90
13976;DHT22;7062;49.792;9.946;2024-01-30T13:52:18;10.60;99.90
13976;DHT22;7062;49.792;9.946;2024-01-30T13:54:43;10.70;99.90
13976;DHT22;7062;49.792;9.946;2024-01-30T13:57:09;10.90;99.90
13976;DHT22;7062;49.792;9.946;2024-01-30T13:59:35;11.10;99.90
13976;DHT22;7062;49.792;9.946;2024-01-30T14:02:01;11.00;99.90
13976;DHT22;7062;49.792;9.946;2024-01-30T14:04:26;11.10;99.90
13976;DHT22;7062;49.792;9.946;2024-01-30T14:06:52;11.20;99.90
13976;DHT22;7062;49.792;9.946;2024-01-30T14:09:18;11.30;99.90
13976;DHT22;7062;49.792;9.946;2024-01-30T14:11:43;11.30;99.90
13976;DHT22;7062;49.792;9.946;2024-01-30T14:14:09;11.20;99.90
13976;DHT22;7062;49.792;9.946;2024-01-30T14:16:35;11.40;99.90
13976;DHT22;7062;49.792;9.946;2024-01-30T14:19:00;11.60;99.90
13976;DHT22;7062;49.792;9.946;2024-01-30T14:21:26;11.60;99.90
13976;DHT22;7062;49.792;9.946;2024-01-30T14:23:52;11.30;99.90
13976;DHT22;7062;49.792;9.946;2024-01-30T14:26:17;11.00;99.90
13976;DHT22;7062;49.792;9.946;2024-01-30T14:28:43;11.00;99.90
13976;DHT22;7062;49.792;9.946;2024-01-30T14:31:11;11.00;99.90
13976;DHT22;7062;49.792;9.946;2024-01-30T14:33:37;10.70;99.90
13976;DHT22;7062;49.792;9.946;2024-01-30T14:36:03;10.60;99.90
13976;DHT22;7062;49.792;9.946;2024-01-30T14:38:29;10.60;99.90
13976;DHT22;7062;49.792;9.946;2024-01-30T14:40:54;10.40;99.90
13976;DHT22;7062;49.792;9.946;2024-01-30T14:43:20;10.30;99.90
13976;DHT22;7062;49.792;9.946;2024-01-30T14:45:45;10.40;99.90
13976;DHT22;7062;49.792;9.946;2024-01-30T14:48:14;10.50;99.90
13976;DHT22;7062;49.792;9.946;2024-01-30T14:50:40;10.40;99.90
13976;DHT22;7062;49.792;9.946;2024-01-30T14:53:05;10.10;99.90
13976;DHT22;7062;49.792;9.946;2024-01-30T14:55:32;9.90;99.90
13976;DHT22;7062;49.792;9.946;2024-01-30T14:57:58;9.80;99.90
13976;DHT22;7062;49.792;9.946;2024-01-30T15:00:25;9.60;99.90
13976;DHT22;7062;49.792;9.946;2024-01-30T15:02:50;9.60;99.90
13976;DHT22;7062;49.792;9.946;2024-01-30T15:05:16;9.60;99.90
13976;DHT22;7062;49.792;9.946;2024-01-30T15:07:41;9.70;99.90
13976;DHT22;7062;49.792;9.946;2024-01-30T15:10:08;9.60;99.90
13976;DHT22;7062;49.792;9.946;2024-01-30T15:12:35;9.60;99.90
13976;DHT22;7062;49.792;9.946;2024-01-30T15:15:01;9.70;99.90
13976;DHT22;7062;49.792;9.946;2024-01-30T15:17:26;9.90;99.90
13976;DHT22;7062;49.792;9.946;2024-01-30T15:19:52;9.90;99.90
13976;DHT22;7062;49.792;9.946;2024-01-30T15:22:18;9.80;99.90
13976;DHT22;7062;49.792;9.946;2024-01-30T15:24:43;9.80;99.90
13976;DHT22;7062;49.792;9.946;2024-01-30T15:27:09;9.70;99.90
13976;DHT22;7062;49.792;9.946;2024-01-30T15:29:35;9.70;99.90
13976;DHT22;7062;49.792;9.946;2024-01-30T15:32:00;9.70;99.90
13976;DHT22;7062;49.792;9.946;2024-01-30T15:34:26;9.80;99.90
13976;DHT22;7062;49.792;9.946;2024-01-30T15:36:52;9.80;99.90
13976;DHT22;7062;49.792;9.946;2024-01-30T15:39:17;9.90;99.90
13976;DHT22;7062;49.792;9.946;2024-01-30T15:41:43;9.90;99.90
13976;DHT22;7062;49.792;9.946;2024-01-30T15:44:09;9.70;99.90
13976;DHT22;7062;49.792;9.946;2024-01-30T15:46:35;9.50;99.90
13976;DHT22;7062;49.792;9.946;2024-01-30T15:49:01;9.60;99.90
13976;DHT22;7062;49.792;9.946;2024-01-30T15:51:29;9.60;99.90
13976;DHT22;7062;49.792;9.946;2024-01-30T15:53:55;9.60;99.90
13976;DHT22;7062;49.792;9.946;2024-01-30T15:56:21;9.60;99.90
13976;DHT22;7062;49.792;9.946;2024-01-30T15:58:47;9.50;99.90